createdAt,value
2019-03-03T00:02:12.334Z,96622.18
2019-03-03T00:04:42.827Z,96618.59
2019-03-03T00:07:13.293Z,96610.75
2019-03-03T00:09:43.817Z,96617.78
2019-03-03T00:12:14.347Z,96624.13
2019-03-03T00:14:44.750Z,96616.30
2019-03-03T00:17:15.260Z,96613.03
2019-03-03T00:19:45.698Z,96617.13
2019-03-03T00:22:16.095Z,96617.61
2019-03-03T00:24:46.567Z,96616.30
2019-03-03T00:27:17.023Z,96609.76
2019-03-03T00:29:47.488Z,96612.72
2019-03-03T00:32:17.979Z,96614.00
2019-03-03T00:34:49.541Z,96606.50
2019-03-03T00:37:25.661Z,96615.63
2019-03-03T00:40:13.364Z,96607.15
2019-03-03T00:43:08.781Z,96601.91
2019-03-03T00:45:57.816Z,96599.00
2019-03-03T00:48:54.810Z,96594.73
2019-03-03T00:51:38.922Z,96595.09
2019-03-03T00:54:27.190Z,96589.69
2019-03-03T00:57:06.610Z,96592.14
2019-03-03T00:59:43.685Z,96595.75
2019-03-03T01:02:31.623Z,96595.41
2019-03-03T01:05:20.871Z,96596.70
2019-03-03T01:08:28.397Z,96597.85
2019-03-03T01:11:11.110Z,96590.82
2019-03-03T01:13:51.365Z,96597.83
2019-03-03T01:16:43.386Z,96598.14
2019-03-03T01:19:29.075Z,96596.70
2019-03-03T01:22:15.798Z,96594.91
2019-03-03T01:24:55.586Z,96598.00
2019-03-03T01:27:27.118Z,96597.50
2019-03-03T01:29:57.475Z,96601.91
2019-03-03T01:32:28.086Z,96593.76
2019-03-03T01:34:58.457Z,96594.59
2019-03-03T01:37:28.812Z,96596.04
2019-03-03T01:39:59.306Z,96601.28
2019-03-03T01:42:29.657Z,96598.33
2019-03-03T01:44:59.980Z,96601.27
2019-03-03T01:47:30.434Z,96602.41
2019-03-03T01:50:00.924Z,96604.05
2019-03-03T01:52:31.364Z,96599.97
2019-03-03T01:55:01.683Z,96604.03
2019-03-03T01:57:32.150Z,96610.89
2019-03-03T02:00:02.521Z,96605.04
2019-03-03T02:02:33.203Z,96610.42
2019-03-03T02:05:03.634Z,96607.46
2019-03-03T02:07:34.114Z,96600.13
2019-03-03T02:10:04.718Z,96599.14
2019-03-03T02:12:35.283Z,96593.58
2019-03-03T02:15:06.393Z,96599.60
2019-03-03T02:17:36.809Z,96594.71
2019-03-03T02:20:07.917Z,96600.92
2019-03-03T02:22:38.259Z,96596.67
2019-03-03T02:25:09.040Z,96591.12
2019-03-03T02:27:39.440Z,96591.14
2019-03-03T02:30:15.749Z,96595.06
2019-03-03T02:32:46.240Z,96596.99
2019-03-03T02:35:17.141Z,96584.44
2019-03-03T02:37:47.908Z,96576.44
2019-03-03T02:40:18.818Z,96580.98
2019-03-03T02:42:49.229Z,96569.91
2019-03-03T02:45:20.321Z,96574.80
2019-03-03T02:47:50.800Z,96578.06
2019-03-03T02:50:21.167Z,96578.55
2019-03-03T02:52:51.589Z,96572.66
2019-03-03T02:55:21.909Z,96573.16
2019-03-03T02:57:52.331Z,96575.91
2019-03-03T03:00:23.052Z,96575.42
2019-03-03T03:02:58.195Z,96573.44
2019-03-03T03:05:46.687Z,96576.72
2019-03-03T03:08:23.838Z,96572.17
2019-03-03T03:11:18.978Z,96575.28
2019-03-03T03:14:08.238Z,96567.44
2019-03-03T03:17:04.158Z,96566.30
2019-03-03T03:20:08.850Z,96563.20
2019-03-03T03:22:49.103Z,96564.34
2019-03-03T03:25:41.431Z,96571.84
2019-03-03T03:28:22.496Z,96561.25
2019-03-03T03:31:02.572Z,96562.73
2019-03-03T03:33:48.874Z,96570.25
2019-03-03T03:36:28.962Z,96562.25
2019-03-03T03:39:09.052Z,96563.70
2019-03-03T03:41:56.934Z,96555.19
2019-03-03T03:44:58.474Z,96563.66
2019-03-03T03:47:37.188Z,96562.02
2019-03-03T03:50:20.215Z,96562.68
2019-03-03T03:53:08.588Z,96570.05
2019-03-03T03:56:05.079Z,96569.86
2019-03-03T03:59:12.807Z,96570.05
2019-03-03T04:02:00.787Z,96572.17
2019-03-03T04:04:48.761Z,96576.09
2019-03-03T04:07:43.727Z,96580.49
2019-03-03T04:10:35.695Z,96580.00
2019-03-03T04:13:24.863Z,96577.07
2019-03-03T04:16:29.796Z,96576.41
2019-03-03T04:19:06.527Z,96577.41
2019-03-03T04:21:50.310Z,96575.09
2019-03-03T04:24:42.406Z,96570.38
2019-03-03T04:27:30.668Z,96579.03
2019-03-03T04:30:11.951Z,96569.88
2019-03-03T04:33:04.096Z,96570.22
2019-03-03T04:35:43.403Z,96562.38
2019-03-03T04:38:23.812Z,96567.30
2019-03-03T04:41:19.538Z,96554.58
2019-03-03T04:44:06.924Z,96557.52
2019-03-03T04:46:58.360Z,96547.05
2019-03-03T04:49:46.417Z,96541.83
2019-03-03T04:52:31.471Z,96549.00
2019-03-03T04:55:23.524Z,96546.72
2019-03-03T04:58:10.097Z,96548.35
2019-03-03T05:00:58.332Z,96543.13
2019-03-03T05:03:46.489Z,96533.64
2019-03-03T05:06:29.710Z,96541.13
2019-03-03T05:09:11.078Z,96543.44
2019-03-03T05:12:43.238Z,96546.05
2019-03-03T05:15:38.123Z,96540.14
2019-03-03T05:18:27.436Z,96546.70
2019-03-03T05:20:57.895Z,96553.55
2019-03-03T05:23:28.256Z,96551.94
2019-03-03T05:25:58.666Z,96545.90
2019-03-03T05:28:29.045Z,96545.39
2019-03-03T05:30:59.963Z,96540.17
2019-03-03T05:33:30.421Z,96546.05
2019-03-03T05:36:00.736Z,96544.58
2019-03-03T05:38:31.153Z,96546.70
2019-03-03T05:41:01.654Z,96544.75
2019-03-03T05:43:31.963Z,96547.16
2019-03-03T05:46:02.345Z,96543.41
2019-03-03T05:48:32.750Z,96545.54
2019-03-03T05:51:03.226Z,96534.27
2019-03-03T05:53:33.583Z,96532.97
2019-03-03T05:56:04.010Z,96531.98
2019-03-03T05:58:34.453Z,96528.39
2019-03-03T06:01:05.015Z,96538.22
2019-03-03T06:03:35.343Z,96537.20
2019-03-03T06:06:05.750Z,96536.53
2019-03-03T06:08:36.262Z,96530.33
2019-03-03T06:11:06.794Z,96527.09
2019-03-03T06:13:37.073Z,96530.33
2019-03-03T06:16:07.546Z,96528.69
2019-03-03T06:18:37.980Z,96519.55
2019-03-03T06:21:08.511Z,96521.86
2019-03-03T06:23:38.918Z,96512.52
2019-03-03T06:26:09.166Z,96519.20
2019-03-03T06:28:39.656Z,96515.64
2019-03-03T06:31:10.130Z,96514.80
2019-03-03T06:33:40.580Z,96517.23
2019-03-03T06:36:11.046Z,96519.69
2019-03-03T06:38:41.478Z,96518.25
2019-03-03T06:41:11.999Z,96521.51
2019-03-03T06:43:42.455Z,96511.71
2019-03-03T06:46:12.884Z,96514.46
2019-03-03T06:48:43.673Z,96511.30
2019-03-03T06:51:14.099Z,96509.92
2019-03-03T06:53:48.913Z,96500.81
2019-03-03T06:56:19.407Z,96508.04
2019-03-03T06:58:49.827Z,96501.94
2019-03-03T07:01:20.268Z,96508.49
2019-03-03T07:03:50.702Z,96512.31
2019-03-03T07:06:21.080Z,96510.55
2019-03-03T07:08:51.419Z,96513.92
2019-03-03T07:11:21.856Z,96517.17
2019-03-03T07:13:52.301Z,96511.84
2019-03-03T07:16:22.650Z,96507.48
2019-03-03T07:18:53.157Z,96504.49
2019-03-03T07:21:23.555Z,96507.53
2019-03-03T07:23:54.031Z,96510.73
2019-03-03T07:26:24.525Z,96517.25
2019-03-03T07:28:55.344Z,96523.34
2019-03-03T07:31:25.693Z,96522.23
2019-03-03T07:33:58.899Z,96518.94
2019-03-03T07:36:29.336Z,96519.05
2019-03-03T07:38:59.777Z,96517.50
2019-03-03T07:41:30.833Z,96518.02
2019-03-03T07:44:01.363Z,96520.76
2019-03-03T07:46:31.937Z,96521.96
2019-03-03T07:49:02.501Z,96526.80
2019-03-03T07:51:32.937Z,96518.41
2019-03-03T07:54:03.298Z,96521.09
2019-03-03T07:56:33.711Z,96524.81
2019-03-03T07:59:04.193Z,96532.91
2019-03-03T08:01:34.484Z,96536.57
2019-03-03T08:04:05.160Z,96537.80
2019-03-03T08:06:39.733Z,96546.66
2019-03-03T08:09:11.133Z,96535.08
2019-03-03T08:11:41.620Z,96544.42
2019-03-03T08:14:12.184Z,96549.55
2019-03-03T08:16:42.609Z,96552.25
2019-03-03T08:19:14.667Z,96549.11
2019-03-03T08:21:45.133Z,96548.80
2019-03-03T08:24:15.544Z,96542.50
2019-03-03T08:26:45.749Z,96550.23
2019-03-03T08:29:16.172Z,96533.21
2019-03-03T08:31:46.494Z,96530.97
2019-03-03T08:34:16.946Z,96530.77
2019-03-03T08:36:47.498Z,96520.55
2019-03-03T08:39:17.886Z,96508.92
2019-03-03T08:41:52.648Z,96515.02
2019-03-03T08:44:35.231Z,96511.73
2019-03-03T08:47:10.463Z,96512.19
2019-03-03T08:49:57.756Z,96506.07
2019-03-03T08:52:40.902Z,96500.95
2019-03-03T08:55:18.914Z,96501.54
2019-03-03T08:58:11.169Z,96498.06
2019-03-03T09:00:48.125Z,96503.59
2019-03-03T09:03:37.440Z,96501.81
2019-03-03T09:06:25.664Z,96493.78
2019-03-03T09:09:19.621Z,96483.03
2019-03-03T09:12:08.918Z,96483.38
2019-03-03T09:14:51.080Z,96479.31
2019-03-03T09:17:49.341Z,96474.73
2019-03-03T09:20:35.578Z,96463.12
2019-03-03T09:23:23.517Z,96457.20
2019-03-03T09:26:05.161Z,96448.93
2019-03-03T09:28:46.444Z,96446.06
2019-03-03T09:31:44.791Z,96452.75
2019-03-03T09:34:32.690Z,96439.38
2019-03-03T09:37:20.980Z,96447.63
2019-03-03T09:40:28.877Z,96452.70
2019-03-03T09:43:24.293Z,96447.23
2019-03-03T09:46:12.234Z,96447.83
2019-03-03T09:49:00.669Z,96450.75
2019-03-03T09:51:59.255Z,96445.17
2019-03-03T09:54:50.380Z,96446.34
2019-03-03T09:57:48.537Z,96452.98
2019-03-03T10:00:43.862Z,96456.52
2019-03-03T10:03:27.771Z,96460.72
2019-03-03T10:06:20.120Z,96453.86
2019-03-03T10:09:09.410Z,96454.16
2019-03-03T10:12:01.550Z,96445.90
2019-03-03T10:14:40.418Z,96450.02
2019-03-03T10:17:25.902Z,96450.80
2019-03-03T10:20:14.648Z,96448.91
2019-03-03T10:23:02.684Z,96451.39
2019-03-03T10:25:44.188Z,96448.95
2019-03-03T10:28:32.163Z,96445.78
2019-03-03T10:31:21.457Z,96436.72
2019-03-03T10:34:08.051Z,96436.17
2019-03-03T10:36:48.031Z,96436.42
2019-03-03T10:39:23.676Z,96432.13
2019-03-03T10:42:07.696Z,96421.23
2019-03-03T10:45:00.219Z,96422.91
2019-03-03T10:47:48.422Z,96424.38
2019-03-03T10:50:43.273Z,96427.07
2019-03-03T10:53:22.437Z,96428.36
2019-03-03T10:56:26.756Z,96431.04
2019-03-03T10:59:03.644Z,96420.42
2019-03-03T11:01:55.987Z,96421.55
2019-03-03T11:04:51.295Z,96420.96
2019-03-03T11:07:39.640Z,96420.20
2019-03-03T11:10:18.032Z,96439.06
2019-03-03T11:13:08.155Z,96435.45
2019-03-03T11:15:52.862Z,96434.01
2019-03-03T11:18:42.417Z,96432.63
2019-03-03T11:21:30.646Z,96439.81
2019-03-03T11:24:07.383Z,96420.55
2019-03-03T11:26:45.658Z,96429.76
2019-03-03T11:29:46.993Z,96424.16
2019-03-03T11:32:23.996Z,96424.07
2019-03-03T11:35:16.137Z,96404.02
2019-03-03T11:38:05.439Z,96406.05
2019-03-03T11:40:41.815Z,96396.98
2019-03-03T11:43:18.624Z,96394.65
2019-03-03T11:46:20.281Z,96387.47
2019-03-03T11:49:24.883Z,96381.55
2019-03-03T11:52:26.377Z,96373.80
2019-03-03T11:55:15.673Z,96376.56
2019-03-03T11:58:02.803Z,96379.52
2019-03-03T12:00:52.094Z,96366.42
2019-03-03T12:03:53.484Z,96369.22
2019-03-03T12:06:38.499Z,96367.50
2019-03-03T12:09:22.929Z,96361.45
2019-03-03T12:12:06.066Z,96356.38
2019-03-03T12:15:04.485Z,96351.18
2019-03-03T12:17:50.372Z,96339.31
2019-03-03T12:20:54.895Z,96333.48
2019-03-03T12:23:36.861Z,96328.88
2019-03-03T12:26:22.951Z,96335.84
2019-03-03T12:29:21.738Z,96318.91
2019-03-03T12:32:11.069Z,96317.48
2019-03-03T12:35:03.502Z,96309.41
2019-03-03T12:37:53.150Z,96305.25
2019-03-03T12:40:41.478Z,96314.73
2019-03-03T12:43:30.605Z,96306.67
2019-03-03T12:46:22.801Z,96307.92
2019-03-03T12:49:03.390Z,96299.46
2019-03-03T12:51:52.092Z,96314.67
2019-03-03T12:54:43.797Z,96308.58
2019-03-03T12:57:33.143Z,96302.92
2019-03-03T13:00:37.824Z,96295.67
2019-03-03T13:03:27.184Z,96296.64
2019-03-03T13:06:24.070Z,96292.44
2019-03-03T13:09:05.161Z,96286.27
2019-03-03T13:12:06.497Z,96282.91
2019-03-03T13:14:52.713Z,96274.78
2019-03-03T13:17:54.335Z,96268.38
2019-03-03T13:20:52.933Z,96273.63
2019-03-03T13:23:29.304Z,96262.95
2019-03-03T13:26:20.942Z,96259.30
2019-03-03T13:29:05.000Z,96259.00
2019-03-03T13:31:53.215Z,96249.42
2019-03-03T13:34:42.405Z,96248.59
2019-03-03T13:37:31.592Z,96238.09
2019-03-03T13:40:20.554Z,96233.02
2019-03-03T13:43:00.216Z,96229.25
2019-03-03T13:45:33.942Z,96230.21
2019-03-03T13:48:04.387Z,96233.04
2019-03-03T13:50:35.057Z,96223.00
2019-03-03T13:53:05.648Z,96212.03
2019-03-03T13:55:36.320Z,96217.48
2019-03-03T13:58:09.970Z,96210.85
2019-03-03T14:00:40.471Z,96196.69
2019-03-03T14:03:10.783Z,96196.21
2019-03-03T14:05:41.208Z,96203.78
2019-03-03T14:08:11.646Z,96201.08
2019-03-03T14:10:42.082Z,96208.28
2019-03-03T14:13:12.466Z,96200.76
2019-03-03T14:15:42.909Z,96180.36
2019-03-03T14:18:13.533Z,96187.88
2019-03-03T14:20:44.164Z,96187.92
2019-03-03T14:23:14.615Z,96174.48
2019-03-03T14:25:45.055Z,96172.24
2019-03-03T14:28:15.468Z,96170.58
2019-03-03T14:30:45.974Z,96171.44
2019-03-03T14:33:16.379Z,96166.53
2019-03-03T14:35:46.719Z,96167.05
2019-03-03T14:38:17.353Z,96153.39
2019-03-03T14:40:48.212Z,96160.83
2019-03-03T14:43:18.973Z,96153.31
2019-03-03T14:45:49.416Z,96156.92
2019-03-03T14:48:19.758Z,96154.67
2019-03-03T14:50:50.457Z,96147.93
2019-03-03T14:53:21.134Z,96147.25
2019-03-03T14:55:51.756Z,96149.39
2019-03-03T14:58:22.247Z,96144.70
2019-03-03T15:00:52.947Z,96148.02
2019-03-03T15:03:23.565Z,96140.16
2019-03-03T15:05:54.204Z,96125.77
2019-03-03T15:08:24.834Z,96128.28
2019-03-03T15:10:55.566Z,96115.66
2019-03-03T15:13:26.015Z,96114.31
2019-03-03T15:15:56.682Z,96110.81
2019-03-03T15:18:27.251Z,96106.25
2019-03-03T15:20:57.955Z,96102.32
2019-03-03T15:23:28.759Z,96101.59
2019-03-03T15:25:59.345Z,96102.34
2019-03-03T15:28:29.882Z,96096.97
2019-03-03T15:31:00.389Z,96099.56
2019-03-03T15:33:31.042Z,96086.64
2019-03-03T15:36:01.803Z,96080.78
2019-03-03T15:38:32.891Z,96084.30
2019-03-03T15:41:03.678Z,96076.75
2019-03-03T15:43:34.075Z,96073.55
2019-03-03T15:46:04.521Z,96063.92
2019-03-03T15:48:35.345Z,96065.82
2019-03-03T15:51:06.042Z,96068.13
2019-03-03T15:53:36.574Z,96068.13
2019-03-03T15:56:07.171Z,96064.73
2019-03-03T15:58:40.629Z,96061.14
2019-03-03T16:01:17.397Z,96056.67
2019-03-03T16:03:50.218Z,96056.66
2019-03-03T16:06:21.027Z,96054.62
2019-03-03T16:08:51.638Z,96052.55
2019-03-03T16:11:22.160Z,96047.58
2019-03-03T16:13:54.244Z,96044.73
2019-03-03T16:16:24.744Z,96045.09
2019-03-03T16:18:55.123Z,96046.23
2019-03-03T16:21:25.578Z,96045.52
2019-03-03T16:23:56.280Z,96047.25
2019-03-03T16:26:26.851Z,96040.63
2019-03-03T16:28:58.131Z,96035.20
2019-03-03T16:31:32.445Z,96038.70
2019-03-03T16:34:05.009Z,96037.94
2019-03-03T16:36:36.441Z,96043.36
2019-03-03T16:39:09.398Z,96040.42
2019-03-03T16:41:39.898Z,96044.31
2019-03-03T16:44:10.564Z,96041.38
2019-03-03T16:46:41.960Z,96045.37
2019-03-03T16:49:12.691Z,96039.76
2019-03-03T16:51:43.198Z,96037.41
2019-03-03T16:54:13.516Z,96035.89
2019-03-03T16:56:45.226Z,96025.44
2019-03-03T16:59:16.836Z,96024.94
2019-03-03T17:01:50.564Z,96029.91
2019-03-03T17:04:20.842Z,96029.63
2019-03-03T17:06:51.440Z,96030.17
2019-03-03T17:09:22.138Z,96030.59
2019-03-03T17:11:52.826Z,96030.52
2019-03-03T17:14:25.487Z,96026.40
2019-03-03T17:16:56.808Z,96021.41
2019-03-03T17:19:28.695Z,96027.55
2019-03-03T17:22:02.243Z,96023.39
2019-03-03T17:24:32.968Z,96027.50
2019-03-03T17:27:06.472Z,96026.09
2019-03-03T17:29:40.311Z,96024.39
2019-03-03T17:32:11.038Z,96020.23
2019-03-03T17:34:41.631Z,96017.73
2019-03-03T17:37:12.298Z,96008.23
2019-03-03T17:39:42.857Z,96021.08
2019-03-03T17:42:13.252Z,96018.92
2019-03-03T17:44:45.496Z,96012.66
2019-03-03T17:47:16.458Z,96010.66
2019-03-03T17:49:47.098Z,96009.84
2019-03-03T17:52:17.845Z,96001.27
2019-03-03T17:54:48.328Z,96001.61
2019-03-03T17:57:18.788Z,96009.19
2019-03-03T17:59:50.552Z,95993.81
2019-03-03T18:02:21.145Z,95998.39
2019-03-03T18:04:51.574Z,96002.33
2019-03-03T18:07:22.093Z,96000.59
2019-03-03T18:09:52.646Z,95997.45
2019-03-03T18:12:24.139Z,95999.07
2019-03-03T18:14:54.996Z,95988.25
2019-03-03T18:17:25.514Z,95991.92
2019-03-03T18:19:56.658Z,95990.39
2019-03-03T18:22:26.958Z,95981.63
2019-03-03T18:24:57.648Z,95978.20
2019-03-03T18:27:28.180Z,95977.80
2019-03-03T18:29:58.557Z,95971.05
2019-03-03T18:32:29.098Z,95973.69
2019-03-03T18:34:59.485Z,95976.64
2019-03-03T18:37:29.889Z,95976.27
2019-03-03T18:40:00.351Z,95975.36
2019-03-03T18:42:31.189Z,95969.80
2019-03-03T18:45:01.684Z,95965.98
2019-03-03T18:47:32.148Z,95969.41
2019-03-03T18:50:02.619Z,95963.66
2019-03-03T18:52:33.046Z,95961.53
2019-03-03T18:55:03.503Z,95955.66
2019-03-03T18:57:33.846Z,95947.20
2019-03-03T19:00:04.786Z,95955.09
2019-03-03T19:02:35.285Z,95950.72
2019-03-03T19:05:06.010Z,95944.76
2019-03-03T19:07:36.658Z,95940.31
2019-03-03T19:10:10.071Z,95944.02
2019-03-03T19:12:40.473Z,95940.52
2019-03-03T19:15:14.136Z,95925.57
2019-03-03T19:17:44.555Z,95931.62
2019-03-03T19:20:17.578Z,95931.31
2019-03-03T19:22:48.136Z,95938.49
2019-03-03T19:25:19.014Z,95932.50
2019-03-03T19:27:50.105Z,95938.27
2019-03-03T19:30:25.356Z,95935.44
2019-03-03T19:33:04.134Z,95931.84
2019-03-03T19:35:37.692Z,95934.55
2019-03-03T19:38:08.065Z,95940.11
2019-03-03T19:40:49.041Z,95928.99
2019-03-03T19:43:19.532Z,95924.44
2019-03-03T19:45:50.325Z,95924.13
2019-03-03T19:48:20.899Z,95928.01
2019-03-03T19:50:51.263Z,95919.82
2019-03-03T19:53:21.682Z,95921.95
2019-03-03T19:55:52.119Z,95923.89
2019-03-03T19:58:22.485Z,95911.58
2019-03-03T20:00:53.039Z,95917.73
2019-03-03T20:03:23.750Z,95923.41
2019-03-03T20:05:54.803Z,95915.00
2019-03-03T20:08:25.567Z,95919.75
2019-03-03T20:11:01.091Z,95922.38
2019-03-03T20:13:32.021Z,95918.24
2019-03-03T20:16:07.128Z,95918.54
2019-03-03T20:18:44.036Z,95914.51
2019-03-03T20:21:14.782Z,95908.52
2019-03-03T20:23:45.196Z,95909.92
2019-03-03T20:26:15.941Z,95912.03
2019-03-03T20:28:46.459Z,95907.58
2019-03-03T20:31:19.934Z,95909.99
2019-03-03T20:33:53.109Z,95908.04
2019-03-03T20:36:24.148Z,95903.28
2019-03-03T20:38:54.913Z,95898.48
2019-03-03T20:41:25.760Z,95902.02
2019-03-03T20:43:56.551Z,95896.77
2019-03-03T20:46:27.044Z,95899.46
2019-03-03T20:48:57.768Z,95895.94
2019-03-03T20:51:28.174Z,95898.34
2019-03-03T20:54:02.390Z,95903.74
2019-03-03T20:56:35.900Z,95898.09
2019-03-03T20:59:08.857Z,95898.66
2019-03-03T21:01:41.533Z,95894.73
2019-03-03T21:04:12.648Z,95890.95
2019-03-03T21:06:43.397Z,95889.73
2019-03-03T21:09:15.438Z,95872.86
2019-03-03T21:11:46.019Z,95873.07
2019-03-03T21:14:16.451Z,95866.23
2019-03-03T21:16:48.266Z,95860.84
2019-03-03T21:19:19.069Z,95847.64
2019-03-03T21:21:49.956Z,95858.36
2019-03-03T21:24:20.492Z,95855.13
2019-03-03T21:26:51.106Z,95847.66
2019-03-03T21:29:21.851Z,95843.65
2019-03-03T21:31:52.775Z,95845.27
2019-03-03T21:34:23.510Z,95856.77
2019-03-03T21:36:54.403Z,95852.63
2019-03-03T21:39:24.866Z,95858.55
2019-03-03T21:42:00.907Z,95859.44
2019-03-03T21:44:31.346Z,95854.73
2019-03-03T21:47:01.849Z,95858.56
2019-03-03T21:49:32.368Z,95860.56
2019-03-03T21:52:03.597Z,95861.29
2019-03-03T21:54:34.046Z,95855.41
2019-03-03T21:57:04.511Z,95854.44
2019-03-03T21:59:34.985Z,95854.23
2019-03-03T22:02:05.460Z,95841.81
2019-03-03T22:04:35.892Z,95843.44
2019-03-03T22:07:06.526Z,95841.94
2019-03-03T22:09:36.818Z,95844.06
2019-03-03T22:12:07.352Z,95841.04
2019-03-03T22:14:37.828Z,95837.11
2019-03-03T22:17:08.251Z,95839.13
2019-03-03T22:19:38.648Z,95831.96
2019-03-03T22:22:09.122Z,95838.13
2019-03-03T22:24:39.452Z,95831.27
2019-03-03T22:27:09.987Z,95823.09
2019-03-03T22:29:40.440Z,95826.03
2019-03-03T22:32:10.901Z,95826.03
2019-03-03T22:34:41.302Z,95832.89
2019-03-03T22:37:11.667Z,95831.45
2019-03-03T22:39:42.170Z,95831.15
2019-03-03T22:42:12.601Z,95818.86
2019-03-03T22:44:43.141Z,95815.92
2019-03-03T22:47:13.602Z,95819.96
2019-03-03T22:49:43.979Z,95819.66
2019-03-03T22:52:14.471Z,95817.53
2019-03-03T22:54:44.831Z,95805.14
2019-03-03T22:57:15.166Z,95794.38
2019-03-03T22:59:45.663Z,95778.94
2019-03-03T23:02:17.798Z,95778.56
2019-03-03T23:05:17.832Z,95772.81
2019-03-03T23:08:04.266Z,95776.05
2019-03-03T23:11:23.979Z,95772.52
2019-03-03T23:14:32.111Z,95781.38
2019-03-03T23:17:52.831Z,95783.69
2019-03-03T23:20:48.219Z,95771.70
2019-03-03T23:24:10.759Z,95771.83
2019-03-03T23:26:41.075Z,95763.58
2019-03-03T23:29:11.546Z,95763.96
2019-03-03T23:31:41.996Z,95759.95
2019-03-03T23:34:12.433Z,95757.53
2019-03-03T23:36:42.967Z,95754.91
2019-03-03T23:39:13.380Z,95743.84
2019-03-03T23:41:43.823Z,95735.87
2019-03-03T23:44:14.155Z,95737.38
2019-03-03T23:46:44.471Z,95734.67
2019-03-03T23:49:15.149Z,95730.94
2019-03-03T23:51:45.529Z,95731.02
2019-03-03T23:54:15.896Z,95723.69
2019-03-03T23:56:46.263Z,95731.55
2019-03-03T23:59:16.682Z,95728.12
